sensor_id;sensor_type;location;lat;lon;timestamp;P1;durP1;ratioP1;P2;durP2;ratioP2
67595;SDS011;54410;48.694;8.934;2023-09-12T00:00:00;14.48;;;9.15;;
67595;SDS011;54410;48.694;8.934;2023-09-12T00:02:28;16.10;;;9.77;;
67595;SDS011;54410;48.694;8.934;2023-09-12T00:04:54;13.18;;;9.60;;
67595;SDS011;54410;48.694;8.934;2023-09-12T00:07:19;14.35;;;10.05;;
67595;SDS011;54410;48.694;8.934;2023-09-12T00:09:50;11.15;;;9.27;;
67595;SDS011;54410;48.694;8.934;2023-09-12T00:12:16;13.57;;;9.43;;
67595;SDS011;54410;48.694;8.934;2023-09-12T00:14:46;14.35;;;9.75;;
67595;SDS011;54410;48.694;8.934;2023-09-12T00:17:12;13.27;;;9.40;;
67595;SDS011;54410;48.694;8.934;2023-09-12T00:19:38;11.35;;;10.02;;
67595;SDS011;54410;48.694;8.934;2023-09-12T00:22:04;11.15;;;9.32;;
67595;SDS011;54410;48.694;8.934;2023-09-12T00:24:29;11.07;;;9.02;;
67595;SDS011;54410;48.694;8.934;2023-09-12T00:26:56;15.75;;;9.88;;
67595;SDS011;54410;48.694;8.934;2023-09-12T00:29:22;11.13;;;9.45;;
67595;SDS011;54410;48.694;8.934;2023-09-12T00:31:48;10.27;;;9.23;;
67595;SDS011;54410;48.694;8.934;2023-09-12T00:34:19;13.70;;;9.50;;
67595;SDS011;54410;48.694;8.934;2023-09-12T00:36:44;10.95;;;9.45;;
67595;SDS011;54410;48.694;8.934;2023-09-12T00:39:12;10.93;;;8.50;;
67595;SDS011;54410;48.694;8.934;2023-09-12T00:41:37;13.32;;;9.73;;
67595;SDS011;54410;48.694;8.934;2023-09-12T00:44:03;11.38;;;9.90;;
67595;SDS011;54410;48.694;8.934;2023-09-12T00:46:32;11.73;;;10.20;;
67595;SDS011;54410;48.694;8.934;2023-09-12T00:48:58;13.43;;;9.95;;
67595;SDS011;54410;48.694;8.934;2023-09-12T00:51:25;11.38;;;9.63;;
67595;SDS011;54410;48.694;8.934;2023-09-12T00:53:51;14.77;;;9.55;;
67595;SDS011;54410;48.694;8.934;2023-09-12T00:56:19;16.52;;;10.98;;
67595;SDS011;54410;48.694;8.934;2023-09-12T00:58:44;12.52;;;10.13;;
67595;SDS011;54410;48.694;8.934;2023-09-12T01:01:11;12.32;;;9.35;;
67595;SDS011;54410;48.694;8.934;2023-09-12T01:03:36;13.70;;;10.55;;
67595;SDS011;54410;48.694;8.934;2023-09-12T01:06:03;17.00;;;10.50;;
67595;SDS011;54410;48.694;8.934;2023-09-12T01:08:30;12.65;;;9.25;;
67595;SDS011;54410;48.694;8.934;2023-09-12T01:10:57;13.00;;;9.25;;
67595;SDS011;54410;48.694;8.934;2023-09-12T01:13:23;10.98;;;9.52;;
67595;SDS011;54410;48.694;8.934;2023-09-12T01:15:49;13.90;;;10.32;;
67595;SDS011;54410;48.694;8.934;2023-09-12T01:18:15;13.32;;;9.40;;
67595;SDS011;54410;48.694;8.934;2023-09-12T01:20:42;12.68;;;10.27;;
67595;SDS011;54410;48.694;8.934;2023-09-12T01:29:30;12.32;;;9.60;;
67595;SDS011;54410;48.694;8.934;2023-09-12T01:31:56;12.35;;;9.77;;
67595;SDS011;54410;48.694;8.934;2023-09-12T01:34:23;15.95;;;10.52;;
67595;SDS011;54410;48.694;8.934;2023-09-12T01:36:49;13.20;;;10.45;;
67595;SDS011;54410;48.694;8.934;2023-09-12T01:39:15;13.88;;;11.48;;
67595;SDS011;54410;48.694;8.934;2023-09-12T01:41:41;15.25;;;10.52;;
67595;SDS011;54410;48.694;8.934;2023-09-12T01:44:11;12.57;;;10.63;;
67595;SDS011;54410;48.694;8.934;2023-09-12T01:46:38;13.32;;;11.18;;
67595;SDS011;54410;48.694;8.934;2023-09-12T01:49:06;17.63;;;10.52;;
67595;SDS011;54410;48.694;8.934;2023-09-12T01:51:33;12.70;;;10.38;;
67595;SDS011;54410;48.694;8.934;2023-09-12T01:53:59;18.17;;;11.40;;
67595;SDS011;54410;48.694;8.934;2023-09-12T01:56:25;16.65;;;11.70;;
67595;SDS011;54410;48.694;8.934;2023-09-12T01:58:51;16.10;;;12.18;;
67595;SDS011;54410;48.694;8.934;2023-09-12T02:01:18;14.32;;;11.63;;
67595;SDS011;54410;48.694;8.934;2023-09-12T02:03:45;16.35;;;11.93;;
67595;SDS011;54410;48.694;8.934;2023-09-12T02:06:12;17.60;;;11.98;;
67595;SDS011;54410;48.694;8.934;2023-09-12T02:08:38;13.75;;;11.30;;
67595;SDS011;54410;48.694;8.934;2023-09-12T02:11:05;17.35;;;12.43;;
67595;SDS011;54410;48.694;8.934;2023-09-12T02:13:31;15.82;;;11.00;;
67595;SDS011;54410;48.694;8.934;2023-09-12T02:16:00;11.80;;;10.57;;
67595;SDS011;54410;48.694;8.934;2023-09-12T02:18:28;15.30;;;11.80;;
67595;SDS011;54410;48.694;8.934;2023-09-12T02:20:55;15.32;;;11.18;;
67595;SDS011;54410;48.694;8.934;2023-09-12T02:23:24;14.95;;;11.85;;
67595;SDS011;54410;48.694;8.934;2023-09-12T02:25:50;17.08;;;12.10;;
67595;SDS011;54410;48.694;8.934;2023-09-12T02:28:16;16.30;;;12.43;;
67595;SDS011;54410;48.694;8.934;2023-09-12T02:30:44;17.73;;;11.98;;
67595;SDS011;54410;48.694;8.934;2023-09-12T02:33:10;15.57;;;11.85;;
67595;SDS011;54410;48.694;8.934;2023-09-12T02:35:36;15.15;;;12.30;;
67595;SDS011;54410;48.694;8.934;2023-09-12T02:38:02;15.57;;;12.40;;
67595;SDS011;54410;48.694;8.934;2023-09-12T02:40:28;15.60;;;12.50;;
67595;SDS011;54410;48.694;8.934;2023-09-12T02:42:54;14.25;;;11.63;;
67595;SDS011;54410;48.694;8.934;2023-09-12T02:45:21;14.45;;;11.68;;
67595;SDS011;54410;48.694;8.934;2023-09-12T02:47:47;14.60;;;11.32;;
67595;SDS011;54410;48.694;8.934;2023-09-12T02:50:12;15.98;;;11.93;;
67595;SDS011;54410;48.694;8.934;2023-09-12T02:52:40;18.08;;;12.20;;
67595;SDS011;54410;48.694;8.934;2023-09-12T02:55:07;16.35;;;11.68;;
67595;SDS011;54410;48.694;8.934;2023-09-12T02:57:37;12.93;;;11.13;;
67595;SDS011;54410;48.694;8.934;2023-09-12T03:00:03;15.50;;;11.77;;
67595;SDS011;54410;48.694;8.934;2023-09-12T03:02:33;19.27;;;12.07;;
67595;SDS011;54410;48.694;8.934;2023-09-12T03:05:02;19.52;;;11.77;;
67595;SDS011;54410;48.694;8.934;2023-09-12T03:07:30;17.80;;;12.40;;
67595;SDS011;54410;48.694;8.934;2023-09-12T03:09:56;16.67;;;11.52;;
67595;SDS011;54410;48.694;8.934;2023-09-12T03:12:22;17.38;;;12.13;;
67595;SDS011;54410;48.694;8.934;2023-09-12T03:14:47;19.05;;;11.57;;
67595;SDS011;54410;48.694;8.934;2023-09-12T03:17:15;13.18;;;10.55;;
67595;SDS011;54410;48.694;8.934;2023-09-12T03:19:44;14.80;;;11.50;;
67595;SDS011;54410;48.694;8.934;2023-09-12T03:22:11;14.65;;;10.95;;
67595;SDS011;54410;48.694;8.934;2023-09-12T03:24:37;15.63;;;10.75;;
67595;SDS011;54410;48.694;8.934;2023-09-12T03:27:03;16.63;;;12.60;;
67595;SDS011;54410;48.694;8.934;2023-09-12T03:29:30;19.55;;;11.85;;
67595;SDS011;54410;48.694;8.934;2023-09-12T03:31:56;13.00;;;11.30;;
67595;SDS011;54410;48.694;8.934;2023-09-12T03:34:22;16.88;;;12.45;;
67595;SDS011;54410;48.694;8.934;2023-09-12T03:36:49;16.65;;;12.55;;
67595;SDS011;54410;48.694;8.934;2023-09-12T03:39:16;14.88;;;11.80;;
67595;SDS011;54410;48.694;8.934;2023-09-12T03:41:42;13.43;;;11.65;;
67595;SDS011;54410;48.694;8.934;2023-09-12T03:44:08;14.73;;;11.80;;
67595;SDS011;54410;48.694;8.934;2023-09-12T03:46:35;18.08;;;11.68;;
67595;SDS011;54410;48.694;8.934;2023-09-12T03:49:01;19.15;;;11.45;;
67595;SDS011;54410;48.694;8.934;2023-09-12T03:51:28;14.20;;;11.18;;
67595;SDS011;54410;48.694;8.934;2023-09-12T03:53:54;14.82;;;11.93;;
67595;SDS011;54410;48.694;8.934;2023-09-12T03:56:21;13.93;;;11.32;;
67595;SDS011;54410;48.694;8.934;2023-09-12T03:58:47;15.20;;;12.27;;
67595;SDS011;54410;48.694;8.934;2023-09-12T04:01:13;14.30;;;12.45;;
67595;SDS011;54410;48.694;8.934;2023-09-12T04:03:40;15.18;;;11.65;;
67595;SDS011;54410;48.694;8.934;2023-09-12T04:06:06;14.25;;;11.63;;
67595;SDS011;54410;48.694;8.934;2023-09-12T04:08:35;16.67;;;11.73;;
67595;SDS011;54410;48.694;8.934;2023-09-12T04:11:01;15.32;;;11.57;;
67595;SDS011;54410;48.694;8.934;2023-09-12T04:13:27;16.42;;;12.57;;
67595;SDS011;54410;48.694;8.934;2023-09-12T04:15:54;14.25;;;11.77;;
67595;SDS011;54410;48.694;8.934;2023-09-12T04:18:20;16.48;;;11.95;;
67595;SDS011;54410;48.694;8.934;2023-09-12T04:20:47;16.60;;;12.45;;
67595;SDS011;54410;48.694;8.934;2023-09-12T04:23:14;15.95;;;12.20;;
67595;SDS011;54410;48.694;8.934;2023-09-12T04:25:42;15.45;;;12.32;;
67595;SDS011;54410;48.694;8.934;2023-09-12T04:28:10;16.92;;;12.60;;
67595;SDS011;54410;48.694;8.934;2023-09-12T04:30:39;15.57;;;12.52;;
67595;SDS011;54410;48.694;8.934;2023-09-12T04:33:07;17.27;;;12.43;;
67595;SDS011;54410;48.694;8.934;2023-09-12T04:35:33;15.57;;;12.43;;
67595;SDS011;54410;48.694;8.934;2023-09-12T04:38:00;20.30;;;13.00;;
67595;SDS011;54410;48.694;8.934;2023-09-12T04:40:29;16.85;;;12.70;;
67595;SDS011;54410;48.694;8.934;2023-09-12T04:42:54;16.52;;;12.35;;
67595;SDS011;54410;48.694;8.934;2023-09-12T04:45:21;14.32;;;12.60;;
67595;SDS011;54410;48.694;8.934;2023-09-12T04:47:49;15.70;;;12.82;;
67595;SDS011;54410;48.694;8.934;2023-09-12T04:50:16;14.90;;;12.80;;
67595;SDS011;54410;48.694;8.934;2023-09-12T04:52:41;16.10;;;12.93;;
67595;SDS011;54410;48.694;8.934;2023-09-12T04:55:09;15.70;;;12.77;;
67595;SDS011;54410;48.694;8.934;2023-09-12T04:57:36;15.70;;;12.55;;
67595;SDS011;54410;48.694;8.934;2023-09-12T05:00:01;19.45;;;13.45;;
67595;SDS011;54410;48.694;8.934;2023-09-12T05:02:31;18.88;;;14.35;;
67595;SDS011;54410;48.694;8.934;2023-09-12T05:05:00;15.57;;;12.35;;
67595;SDS011;54410;48.694;8.934;2023-09-12T05:07:26;21.30;;;13.85;;
67595;SDS011;54410;48.694;8.934;2023-09-12T05:09:52;18.42;;;13.25;;
67595;SDS011;54410;48.694;8.934;2023-09-12T05:12:18;17.63;;;13.60;;
67595;SDS011;54410;48.694;8.934;2023-09-12T05:14:44;18.48;;;14.18;;
67595;SDS011;54410;48.694;8.934;2023-09-12T05:17:11;18.38;;;12.88;;
67595;SDS011;54410;48.694;8.934;2023-09-12T05:19:39;13.80;;;12.20;;
67595;SDS011;54410;48.694;8.934;2023-09-12T05:22:04;17.10;;;11.80;;
67595;SDS011;54410;48.694;8.934;2023-09-12T05:24:30;13.98;;;11.50;;
67595;SDS011;54410;48.694;8.934;2023-09-12T05:26:58;15.25;;;11.32;;
67595;SDS011;54410;48.694;8.934;2023-09-12T05:29:24;15.77;;;11.57;;
67595;SDS011;54410;48.694;8.934;2023-09-12T05:31:50;15.30;;;10.30;;
67595;SDS011;54410;48.694;8.934;2023-09-12T05:34:19;17.35;;;11.02;;
67595;SDS011;54410;48.694;8.934;2023-09-12T05:36:45;12.52;;;10.27;;
67595;SDS011;54410;48.694;8.934;2023-09-12T05:39:11;13.30;;;10.75;;
67595;SDS011;54410;48.694;8.934;2023-09-12T05:41:38;17.35;;;11.50;;
67595;SDS011;54410;48.694;8.934;2023-09-12T05:46:33;12.68;;;10.00;;
67595;SDS011;54410;48.694;8.934;2023-09-12T05:48:59;15.07;;;10.35;;
67595;SDS011;54410;48.694;8.934;2023-09-12T05:51:25;16.92;;;10.32;;
67595;SDS011;54410;48.694;8.934;2023-09-12T05:53:50;13.90;;;10.43;;
67595;SDS011;54410;48.694;8.934;2023-09-12T05:56:16;14.73;;;10.40;;
67595;SDS011;54410;48.694;8.934;2023-09-12T05:58:42;11.60;;;10.02;;
67595;SDS011;54410;48.694;8.934;2023-09-12T06:01:08;17.85;;;10.07;;
67595;SDS011;54410;48.694;8.934;2023-09-12T06:03:34;14.57;;;10.80;;
67595;SDS011;54410;48.694;8.934;2023-09-12T06:05:59;12.25;;;9.38;;
67595;SDS011;54410;48.694;8.934;2023-09-12T06:08:25;11.65;;;8.98;;
67595;SDS011;54410;48.694;8.934;2023-09-12T06:10:51;14.40;;;9.70;;
67595;SDS011;54410;48.694;8.934;2023-09-12T06:13:19;14.35;;;10.00;;
67595;SDS011;54410;48.694;8.934;2023-09-12T06:15:45;10.30;;;9.20;;
67595;SDS011;54410;48.694;8.934;2023-09-12T06:18:10;15.25;;;9.80;;
67595;SDS011;54410;48.694;8.934;2023-09-12T06:20:36;14.35;;;10.00;;
67595;SDS011;54410;48.694;8.934;2023-09-12T06:23:02;13.27;;;10.15;;
67595;SDS011;54410;48.694;8.934;2023-09-12T06:25:28;11.98;;;10.35;;
67595;SDS011;54410;48.694;8.934;2023-09-12T06:27:54;12.68;;;9.90;;
67595;SDS011;54410;48.694;8.934;2023-09-12T06:30:20;15.52;;;11.68;;
67595;SDS011;54410;48.694;8.934;2023-09-12T06:32:46;14.32;;;10.35;;
67595;SDS011;54410;48.694;8.934;2023-09-12T06:35:12;14.93;;;10.15;;
67595;SDS011;54410;48.694;8.934;2023-09-12T06:37:38;16.60;;;9.45;;
67595;SDS011;54410;48.694;8.934;2023-09-12T06:40:04;14.80;;;9.52;;
67595;SDS011;54410;48.694;8.934;2023-09-12T06:42:31;11.27;;;9.70;;
67595;SDS011;54410;48.694;8.934;2023-09-12T06:44:57;12.43;;;9.27;;
67595;SDS011;54410;48.694;8.934;2023-09-12T06:47:23;12.43;;;9.55;;
67595;SDS011;54410;48.694;8.934;2023-09-12T06:49:48;11.27;;;8.82;;
67595;SDS011;54410;48.694;8.934;2023-09-12T06:52:14;11.48;;;9.13;;
67595;SDS011;54410;48.694;8.934;2023-09-12T06:54:39;13.30;;;8.60;;
67595;SDS011;54410;48.694;8.934;2023-09-12T06:57:05;14.93;;;7.65;;
67595;SDS011;54410;48.694;8.934;2023-09-12T06:59:30;11.00;;;7.18;;
67595;SDS011;54410;48.694;8.934;2023-09-12T07:01:56;12.52;;;6.97;;
67595;SDS011;54410;48.694;8.934;2023-09-12T07:04:21;6.93;;;5.90;;
67595;SDS011;54410;48.694;8.934;2023-09-12T07:06:47;8.38;;;6.28;;
67595;SDS011;54410;48.694;8.934;2023-09-12T07:09:12;7.72;;;5.80;;
67595;SDS011;54410;48.694;8.934;2023-09-12T07:11:40;9.52;;;6.20;;
67595;SDS011;54410;48.694;8.934;2023-09-12T07:14:06;9.50;;;5.82;;
67595;SDS011;54410;48.694;8.934;2023-09-12T07:16:32;11.95;;;6.18;;
67595;SDS011;54410;48.694;8.934;2023-09-12T07:18:57;10.75;;;5.88;;
67595;SDS011;54410;48.694;8.934;2023-09-12T07:21:23;10.05;;;5.05;;
67595;SDS011;54410;48.694;8.934;2023-09-12T07:23:48;7.70;;;5.88;;
67595;SDS011;54410;48.694;8.934;2023-09-12T07:26:14;8.30;;;6.50;;
67595;SDS011;54410;48.694;8.934;2023-09-12T07:28:40;9.30;;;5.47;;
67595;SDS011;54410;48.694;8.934;2023-09-12T07:31:06;11.50;;;6.38;;
67595;SDS011;54410;48.694;8.934;2023-09-12T07:33:32;10.23;;;6.15;;
67595;SDS011;54410;48.694;8.934;2023-09-12T07:35:58;10.32;;;6.78;;
67595;SDS011;54410;48.694;8.934;2023-09-12T07:38:24;12.35;;;7.25;;
67595;SDS011;54410;48.694;8.934;2023-09-12T07:40:50;13.05;;;6.35;;
67595;SDS011;54410;48.694;8.934;2023-09-12T07:43:16;11.32;;;6.93;;
67595;SDS011;54410;48.694;8.934;2023-09-12T07:45:42;11.77;;;6.35;;
67595;SDS011;54410;48.694;8.934;2023-09-12T07:48:08;10.52;;;6.35;;
67595;SDS011;54410;48.694;8.934;2023-09-12T07:50:35;11.48;;;7.10;;
67595;SDS011;54410;48.694;8.934;2023-09-12T07:53:03;10.15;;;6.90;;
67595;SDS011;54410;48.694;8.934;2023-09-12T07:55:29;13.63;;;7.57;;
67595;SDS011;54410;48.694;8.934;2023-09-12T07:57:59;20.23;;;7.60;;
67595;SDS011;54410;48.694;8.934;2023-09-12T08:00:25;19.45;;;7.53;;
67595;SDS011;54410;48.694;8.934;2023-09-12T08:02:50;22.23;;;8.52;;
67595;SDS011;54410;48.694;8.934;2023-09-12T08:05:16;15.63;;;7.45;;
67595;SDS011;54410;48.694;8.934;2023-09-12T08:07:44;15.20;;;7.53;;
67595;SDS011;54410;48.694;8.934;2023-09-12T08:10:09;14.50;;;7.85;;
67595;SDS011;54410;48.694;8.934;2023-09-12T08:12:35;13.25;;;7.85;;
67595;SDS011;54410;48.694;8.934;2023-09-12T08:15:03;13.80;;;7.07;;
67595;SDS011;54410;48.694;8.934;2023-09-12T08:17:29;16.38;;;6.90;;
67595;SDS011;54410;48.694;8.934;2023-09-12T08:19:55;20.73;;;7.10;;
67595;SDS011;54410;48.694;8.934;2023-09-12T08:22:21;13.00;;;6.45;;
67595;SDS011;54410;48.694;8.934;2023-09-12T08:24:47;12.05;;;6.65;;
67595;SDS011;54410;48.694;8.934;2023-09-12T08:27:12;8.68;;;5.90;;
67595;SDS011;54410;48.694;8.934;2023-09-12T08:29:38;10.55;;;6.18;;
67595;SDS011;54410;48.694;8.934;2023-09-12T08:32:04;16.92;;;6.85;;
67595;SDS011;54410;48.694;8.934;2023-09-12T08:34:30;19.60;;;8.38;;
67595;SDS011;54410;48.694;8.934;2023-09-12T08:36:55;10.35;;;5.28;;
67595;SDS011;54410;48.694;8.934;2023-09-12T08:39:25;10.52;;;7.22;;
67595;SDS011;54410;48.694;8.934;2023-09-12T08:41:51;9.90;;;5.18;;
67595;SDS011;54410;48.694;8.934;2023-09-12T08:44:18;6.22;;;5.60;;
67595;SDS011;54410;48.694;8.934;2023-09-12T08:46:44;6.30;;;5.35;;
67595;SDS011;54410;48.694;8.934;2023-09-12T08:49:10;9.88;;;5.80;;
67595;SDS011;54410;48.694;8.934;2023-09-12T08:51:38;11.10;;;5.90;;
67595;SDS011;54410;48.694;8.934;2023-09-12T08:54:04;8.63;;;5.53;;
67595;SDS011;54410;48.694;8.934;2023-09-12T08:56:31;8.82;;;5.30;;
67595;SDS011;54410;48.694;8.934;2023-09-12T08:58:57;16.27;;;6.30;;
67595;SDS011;54410;48.694;8.934;2023-09-12T09:01:24;6.70;;;5.03;;
67595;SDS011;54410;48.694;8.934;2023-09-12T09:03:52;10.52;;;5.60;;
67595;SDS011;54410;48.694;8.934;2023-09-12T09:06:19;9.68;;;5.43;;
67595;SDS011;54410;48.694;8.934;2023-09-12T09:08:48;13.77;;;5.15;;
67595;SDS011;54410;48.694;8.934;2023-09-12T09:11:14;6.03;;;4.55;;
67595;SDS011;54410;48.694;8.934;2023-09-12T09:13:40;5.88;;;5.13;;
67595;SDS011;54410;48.694;8.934;2023-09-12T09:16:09;10.52;;;5.35;;
67595;SDS011;54410;48.694;8.934;2023-09-12T09:21:36;5.88;;;4.50;;
67595;SDS011;54410;48.694;8.934;2023-09-12T09:24:08;11.73;;;4.97;;
67595;SDS011;54410;48.694;8.934;2023-09-12T09:29:10;7.45;;;5.05;;
67595;SDS011;54410;48.694;8.934;2023-09-12T09:31:58;7.20;;;4.65;;
67595;SDS011;54410;48.694;8.934;2023-09-12T09:34:25;5.88;;;4.13;;
67595;SDS011;54410;48.694;8.934;2023-09-12T09:36:55;9.57;;;4.25;;
67595;SDS011;54410;48.694;8.934;2023-09-12T09:39:25;5.43;;;4.13;;
67595;SDS011;54410;48.694;8.934;2023-09-12T09:41:52;6.05;;;4.25;;
67595;SDS011;54410;48.694;8.934;2023-09-12T09:44:18;8.30;;;4.50;;
67595;SDS011;54410;48.694;8.934;2023-09-12T09:46:46;6.63;;;4.53;;
67595;SDS011;54410;48.694;8.934;2023-09-12T09:49:17;5.63;;;4.47;;
67595;SDS011;54410;48.694;8.934;2023-09-12T09:51:45;6.97;;;4.45;;
67595;SDS011;54410;48.694;8.934;2023-09-12T09:54:14;5.05;;;4.53;;
67595;SDS011;54410;48.694;8.934;2023-09-12T09:56:49;5.78;;;4.60;;
67595;SDS011;54410;48.694;8.934;2023-09-12T09:59:20;5.68;;;4.85;;
67595;SDS011;54410;48.694;8.934;2023-09-12T10:01:48;5.80;;;4.97;;
67595;SDS011;54410;48.694;8.934;2023-09-12T10:04:14;7.20;;;3.88;;
67595;SDS011;54410;48.694;8.934;2023-09-12T10:06:42;6.82;;;4.20;;
67595;SDS011;54410;48.694;8.934;2023-09-12T10:09:11;4.78;;;4.20;;
67595;SDS011;54410;48.694;8.934;2023-09-12T10:11:42;6.88;;;4.63;;
67595;SDS011;54410;48.694;8.934;2023-09-12T10:14:08;6.22;;;4.45;;
67595;SDS011;54410;48.694;8.934;2023-09-12T10:16:38;6.38;;;4.55;;
67595;SDS011;54410;48.694;8.934;2023-09-12T10:19:12;9.13;;;4.80;;
67595;SDS011;54410;48.694;8.934;2023-09-12T10:21:58;5.05;;;4.53;;
67595;SDS011;54410;48.694;8.934;2023-09-12T10:24:51;6.30;;;4.53;;
67595;SDS011;54410;48.694;8.934;2023-09-12T10:27:20;6.97;;;4.60;;
67595;SDS011;54410;48.694;8.934;2023-09-12T10:29:47;7.32;;;4.43;;
67595;SDS011;54410;48.694;8.934;2023-09-12T10:32:15;9.00;;;5.00;;
67595;SDS011;54410;48.694;8.934;2023-09-12T10:34:42;8.77;;;5.20;;
67595;SDS011;54410;48.694;8.934;2023-09-12T10:37:10;7.05;;;4.78;;
67595;SDS011;54410;48.694;8.934;2023-09-12T10:39:38;6.85;;;4.82;;
67595;SDS011;54410;48.694;8.934;2023-09-12T10:42:04;6.18;;;4.65;;
67595;SDS011;54410;48.694;8.934;2023-09-12T10:44:31;11.00;;;5.85;;
67595;SDS011;54410;48.694;8.934;2023-09-12T10:46:57;6.10;;;4.68;;
67595;SDS011;54410;48.694;8.934;2023-09-12T10:49:23;6.50;;;4.95;;
67595;SDS011;54410;48.694;8.934;2023-09-12T10:51:49;7.00;;;5.53;;
67595;SDS011;54410;48.694;8.934;2023-09-12T10:54:15;5.72;;;4.93;;
67595;SDS011;54410;48.694;8.934;2023-09-12T10:57:01;5.45;;;4.95;;
67595;SDS011;54410;48.694;8.934;2023-09-12T10:59:30;6.35;;;5.32;;
67595;SDS011;54410;48.694;8.934;2023-09-12T11:04:58;7.53;;;5.15;;
67595;SDS011;54410;48.694;8.934;2023-09-12T11:12:41;6.82;;;4.50;;
67595;SDS011;54410;48.694;8.934;2023-09-12T11:15:07;9.02;;;5.00;;
67595;SDS011;54410;48.694;8.934;2023-09-12T11:17:38;5.53;;;4.93;;
67595;SDS011;54410;48.694;8.934;2023-09-12T11:20:04;5.75;;;4.90;;
67595;SDS011;54410;48.694;8.934;2023-09-12T11:22:35;5.57;;;4.95;;
67595;SDS011;54410;48.694;8.934;2023-09-12T11:25:28;10.68;;;5.25;;
67595;SDS011;54410;48.694;8.934;2023-09-12T11:30:23;7.55;;;5.10;;
67595;SDS011;54410;48.694;8.934;2023-09-12T11:33:08;8.70;;;6.18;;
67595;SDS011;54410;48.694;8.934;2023-09-12T11:35:37;5.32;;;4.82;;
67595;SDS011;54410;48.694;8.934;2023-09-12T11:38:03;7.75;;;5.07;;
67595;SDS011;54410;48.694;8.934;2023-09-12T11:42:58;6.65;;;5.38;;
67595;SDS011;54410;48.694;8.934;2023-09-12T11:45:24;11.13;;;5.35;;
67595;SDS011;54410;48.694;8.934;2023-09-12T11:47:50;5.50;;;5.00;;
67595;SDS011;54410;48.694;8.934;2023-09-12T11:53:00;6.35;;;5.28;;
67595;SDS011;54410;48.694;8.934;2023-09-12T11:55:35;5.32;;;4.82;;
67595;SDS011;54410;48.694;8.934;2023-09-12T11:58:07;6.28;;;5.28;;
67595;SDS011;54410;48.694;8.934;2023-09-12T12:00:33;6.90;;;5.40;;
67595;SDS011;54410;48.694;8.934;2023-09-12T12:02:59;5.75;;;4.93;;
67595;SDS011;54410;48.694;8.934;2023-09-12T12:05:25;7.22;;;5.00;;
67595;SDS011;54410;48.694;8.934;2023-09-12T12:07:51;7.85;;;5.28;;
67595;SDS011;54410;48.694;8.934;2023-09-12T12:10:17;6.70;;;5.18;;
67595;SDS011;54410;48.694;8.934;2023-09-12T12:12:43;5.80;;;5.30;;
67595;SDS011;54410;48.694;8.934;2023-09-12T12:15:11;5.05;;;4.55;;
67595;SDS011;54410;48.694;8.934;2023-09-12T12:17:37;5.68;;;5.18;;
67595;SDS011;54410;48.694;8.934;2023-09-12T12:20:06;6.00;;;5.13;;
67595;SDS011;54410;48.694;8.934;2023-09-12T12:22:35;7.45;;;4.90;;
67595;SDS011;54410;48.694;8.934;2023-09-12T12:25:10;5.78;;;5.28;;
67595;SDS011;54410;48.694;8.934;2023-09-12T12:27:40;8.05;;;4.97;;
67595;SDS011;54410;48.694;8.934;2023-09-12T12:30:07;5.85;;;5.30;;
67595;SDS011;54410;48.694;8.934;2023-09-12T12:32:35;6.65;;;6.00;;
67595;SDS011;54410;48.694;8.934;2023-09-12T12:35:04;5.57;;;5.03;;
67595;SDS011;54410;48.694;8.934;2023-09-12T12:37:32;6.60;;;5.47;;
67595;SDS011;54410;48.694;8.934;2023-09-12T12:39:59;7.78;;;5.45;;
67595;SDS011;54410;48.694;8.934;2023-09-12T12:42:32;6.30;;;5.50;;
67595;SDS011;54410;48.694;8.934;2023-09-12T12:44:58;7.82;;;5.03;;
67595;SDS011;54410;48.694;8.934;2023-09-12T12:47:24;9.48;;;6.22;;
67595;SDS011;54410;48.694;8.934;2023-09-12T12:49:51;13.10;;;5.90;;
67595;SDS011;54410;48.694;8.934;2023-09-12T12:52:21;7.88;;;6.18;;
67595;SDS011;54410;48.694;8.934;2023-09-12T12:54:48;14.45;;;6.88;;
67595;SDS011;54410;48.694;8.934;2023-09-12T12:57:17;9.50;;;6.40;;
67595;SDS011;54410;48.694;8.934;2023-09-12T12:59:47;9.32;;;6.22;;
67595;SDS011;54410;48.694;8.934;2023-09-12T13:02:14;13.98;;;6.97;;
67595;SDS011;54410;48.694;8.934;2023-09-12T13:04:40;7.72;;;6.68;;
67595;SDS011;54410;48.694;8.934;2023-09-12T13:07:06;8.27;;;5.93;;
67595;SDS011;54410;48.694;8.934;2023-09-12T13:09:32;7.50;;;5.72;;
67595;SDS011;54410;48.694;8.934;2023-09-12T13:11:58;9.02;;;6.00;;
67595;SDS011;54410;48.694;8.934;2023-09-12T13:14:24;10.40;;;6.28;;
67595;SDS011;54410;48.694;8.934;2023-09-12T13:16:56;8.98;;;6.70;;
67595;SDS011;54410;48.694;8.934;2023-09-12T13:19:22;8.13;;;6.50;;
67595;SDS011;54410;48.694;8.934;2023-09-12T13:21:48;11.27;;;6.60;;
67595;SDS011;54410;48.694;8.934;2023-09-12T13:24:14;10.75;;;6.30;;
67595;SDS011;54410;48.694;8.934;2023-09-12T13:26:40;13.45;;;6.85;;
67595;SDS011;54410;48.694;8.934;2023-09-12T13:29:06;7.30;;;6.40;;
67595;SDS011;54410;48.694;8.934;2023-09-12T13:31:32;9.27;;;6.57;;
67595;SDS011;54410;48.694;8.934;2023-09-12T13:33:58;7.07;;;5.57;;
67595;SDS011;54410;48.694;8.934;2023-09-12T13:36:24;7.57;;;6.78;;
67595;SDS011;54410;48.694;8.934;2023-09-12T13:38:50;13.93;;;6.97;;
67595;SDS011;54410;48.694;8.934;2023-09-12T13:41:16;9.90;;;6.55;;
67595;SDS011;54410;48.694;8.934;2023-09-12T13:43:42;11.85;;;6.20;;
67595;SDS011;54410;48.694;8.934;2023-09-12T13:46:12;8.75;;;6.60;;
67595;SDS011;54410;48.694;8.934;2023-09-12T13:48:37;8.85;;;6.13;;
67595;SDS011;54410;48.694;8.934;2023-09-12T13:51:03;8.80;;;6.32;;
67595;SDS011;54410;48.694;8.934;2023-09-12T13:53:29;11.77;;;7.05;;
67595;SDS011;54410;48.694;8.934;2023-09-12T13:55:56;8.57;;;6.55;;
67595;SDS011;54410;48.694;8.934;2023-09-12T13:58:23;7.97;;;6.18;;
67595;SDS011;54410;48.694;8.934;2023-09-12T14:00:48;10.02;;;6.57;;
67595;SDS011;54410;48.694;8.934;2023-09-12T14:03:14;10.50;;;6.30;;
67595;SDS011;54410;48.694;8.934;2023-09-12T14:05:40;7.85;;;6.25;;
67595;SDS011;54410;48.694;8.934;2023-09-12T14:08:06;9.70;;;6.40;;
67595;SDS011;54410;48.694;8.934;2023-09-12T14:10:31;7.47;;;6.18;;
67595;SDS011;54410;48.694;8.934;2023-09-12T14:12:57;7.90;;;6.28;;
67595;SDS011;54410;48.694;8.934;2023-09-12T14:15:23;11.10;;;6.13;;
67595;SDS011;54410;48.694;8.934;2023-09-12T14:17:48;11.52;;;6.03;;
67595;SDS011;54410;48.694;8.934;2023-09-12T14:20:14;8.50;;;6.60;;
67595;SDS011;54410;48.694;8.934;2023-09-12T14:22:40;9.23;;;6.25;;
67595;SDS011;54410;48.694;8.934;2023-09-12T14:25:07;8.90;;;5.85;;
67595;SDS011;54410;48.694;8.934;2023-09-12T14:27:33;5.95;;;5.35;;
67595;SDS011;54410;48.694;8.934;2023-09-12T14:29:59;10.00;;;6.07;;
67595;SDS011;54410;48.694;8.934;2023-09-12T14:32:25;10.40;;;6.63;;
67595;SDS011;54410;48.694;8.934;2023-09-12T14:34:51;8.55;;;6.50;;
67595;SDS011;54410;48.694;8.934;2023-09-12T14:37:17;8.43;;;6.40;;
67595;SDS011;54410;48.694;8.934;2023-09-12T14:39:42;10.50;;;6.07;;
67595;SDS011;54410;48.694;8.934;2023-09-12T14:42:08;7.25;;;5.97;;
67595;SDS011;54410;48.694;8.934;2023-09-12T14:44:37;6.95;;;6.10;;
67595;SDS011;54410;48.694;8.934;2023-09-12T14:47:03;8.20;;;5.88;;
67595;SDS011;54410;48.694;8.934;2023-09-12T14:49:29;11.48;;;6.07;;
67595;SDS011;54410;48.694;8.934;2023-09-12T14:51:55;8.00;;;6.30;;
67595;SDS011;54410;48.694;8.934;2023-09-12T14:54:20;9.98;;;6.40;;
67595;SDS011;54410;48.694;8.934;2023-09-12T14:56:47;10.88;;;6.25;;
67595;SDS011;54410;48.694;8.934;2023-09-12T14:59:13;13.77;;;6.57;;
67595;SDS011;54410;48.694;8.934;2023-09-12T15:01:39;8.68;;;6.30;;